Time;durP1;ratioP1;P1;durP2;ratioP2;P2;SDS_P1;SDS_P2;PMS_P1;PMS_P2;Temp;Humidity;BMP_temperature;BMP_pressure;BME280_temperature;BME280_humidity;BME280_pressure;Samples;Min_cycle;Max_cycle;Signal;HPM_P1;HPM_P2
2023/09/10 00:00:39;;;;;;;0.10;0.10;;;18.70;99.90;;;;;;5019166;28;20399;-80
2023/09/10 00:03:05;;;;;;;0.20;0.20;;;18.70;99.90;;;;;;5018952;28;20104;-81
2023/09/10 00:05:31;;;;;;;0.20;0.20;;;18.60;99.90;;;;;;5024307;28;20045;-80
2023/09/10 00:07:58;;;;;;;0.20;0.20;;;18.60;99.90;;;;;;5030002;28;20037;-81
2023/09/10 00:10:24;;;;;;;0.15;0.15;;;18.70;99.90;;;;;;5030195;28;20049;-81
2023/09/10 00:12:49;;;;;;;0.20;0.20;;;18.70;99.90;;;;;;5030167;28;20095;-80
2023/09/10 00:15:15;;;;;;;0.10;0.10;;;18.70;99.90;;;;;;5027636;28;20045;-80
2023/09/10 00:17:40;;;;;;;0.20;0.20;;;18.60;99.90;;;;;;5023404;28;20038;-80
2023/09/10 00:20:07;;;;;;;0.20;0.20;;;18.70;99.90;;;;;;5034891;28;20367;-80
2023/09/10 00:22:34;;;;;;;0.20;0.20;;;18.60;99.90;;;;;;5029688;28;20049;-81
2023/09/10 00:24:59;;;;;;;0.20;0.20;;;18.60;99.90;;;;;;5030964;28;20404;-81
2023/09/10 00:27:25;;;;;;;0.20;0.20;;;18.60;99.90;;;;;;5028953;28;20052;-81
2023/09/10 00:29:51;;;;;;;0.20;0.20;;;18.60;99.90;;;;;;5028338;28;20045;-80
2023/09/10 00:32:16;;;;;;;0.20;0.20;;;18.60;99.90;;;;;;5028245;28;20492;-80
2023/09/10 00:34:42;;;;;;;0.20;0.20;;;18.60;99.90;;;;;;5029626;28;20534;-80
2023/09/10 00:37:07;;;;;;;0.20;0.20;;;18.60;99.90;;;;;;5028823;28;20053;-80
2023/09/10 00:39:33;;;;;;;0.20;0.20;;;18.60;99.90;;;;;;5030154;28;20048;-81
2023/09/10 00:41:59;;;;;;;0.20;0.20;;;18.50;99.90;;;;;;5029078;28;20053;-81
2023/09/10 00:44:25;;;;;;;0.20;0.20;;;18.50;99.90;;;;;;5030573;28;20049;-81
2023/09/10 00:46:52;;;;;;;0.20;0.20;;;18.50;99.90;;;;;;5029573;28;20033;-80
2023/09/10 00:49:19;;;;;;;0.17;0.17;;;18.50;99.90;;;;;;5026776;28;20053;-80
2023/09/10 00:51:47;;;;;;;0.10;0.10;;;18.50;99.90;;;;;;5026694;28;20045;-80
2023/09/10 00:54:14;;;;;;;0.30;0.30;;;18.50;99.90;;;;;;5022094;28;20046;-80
2023/09/10 00:56:40;;;;;;;0.20;0.20;;;18.50;99.90;;;;;;5038748;28;20050;-81
2023/09/10 00:59:07;;;;;;;0.10;0.10;;;18.40;99.90;;;;;;5027273;28;20041;-81
2023/09/10 01:01:32;;;;;;;0.20;0.20;;;18.40;99.90;;;;;;5035792;28;20679;-81
2023/09/10 01:03:58;;;;;;;0.20;0.20;;;18.40;99.90;;;;;;5028448;28;20088;-80
2023/09/10 01:06:24;;;;;;;0.20;0.20;;;18.40;99.90;;;;;;5021047;28;20037;-80
2023/09/10 01:08:50;;;;;;;0.10;0.10;;;18.40;99.90;;;;;;5020146;28;20483;-81
2023/09/10 01:12:03;;;;;;;0.20;0.20;;;18.40;99.90;;;;;;5025972;28;20054;-81
2023/09/10 01:14:36;;;;;;;0.20;0.20;;;18.40;99.90;;;;;;5012462;28;20552;-81
2023/09/10 01:17:08;;;;;;;0.20;0.20;;;18.40;99.90;;;;;;5026664;28;20124;-80
2023/09/10 01:19:52;;;;;;;0.10;0.10;;;18.40;99.90;;;;;;5020566;28;20052;-81
2023/09/10 01:23:00;;;;;;;0.20;0.20;;;18.30;99.90;;;;;;5028598;28;20056;-81
2023/09/10 01:25:26;;;;;;;0.17;0.17;;;18.30;99.90;;;;;;4951393;28;20055;-81
2023/09/10 01:27:51;;;;;;;0.20;0.20;;;18.30;99.90;;;;;;5012908;28;20106;-79
2023/09/10 01:30:17;;;;;;;0.10;0.10;;;18.30;99.90;;;;;;5022379;28;20443;-80
2023/09/10 01:32:58;;;;;;;0.20;0.20;;;18.30;99.90;;;;;;5028450;28;20052;-81
2023/09/10 01:35:40;;;;;;;0.20;0.20;;;18.30;99.90;;;;;;5025805;28;20135;-80
2023/09/10 01:38:15;;;;;;;0.20;0.20;;;18.30;99.90;;;;;;5028685;28;20041;-80
2023/09/10 01:41:02;;;;;;;0.20;0.20;;;18.30;99.90;;;;;;5028619;28;20096;-81
2023/09/10 01:43:30;;;;;;;0.20;0.20;;;18.30;99.90;;;;;;5012599;28;20096;-81
2023/09/10 01:45:56;;;;;;;0.20;0.20;;;18.20;99.90;;;;;;5013800;28;20045;-80
2023/09/10 01:48:23;;;;;;;0.20;0.20;;;18.20;99.90;;;;;;5028803;28;20049;-80
2023/09/10 01:50:49;;;;;;;0.10;0.10;;;18.30;99.90;;;;;;5027781;28;20370;-82
2023/09/10 01:53:16;;;;;;;0.20;0.20;;;18.20;99.90;;;;;;5030390;28;20068;-81
2023/09/10 01:55:43;;;;;;;0.20;0.20;;;18.20;99.90;;;;;;5027837;28;20086;-81
2023/09/10 01:58:12;;;;;;;0.10;0.10;;;18.10;99.90;;;;;;5028823;28;20064;-80
2023/09/10 02:00:39;;;;;;;0.20;0.20;;;18.10;99.90;;;;;;5027640;28;20057;-80
2023/09/10 02:03:04;;;;;;;0.20;0.20;;;18.10;99.90;;;;;;5029109;28;20057;-81
2023/09/10 02:05:30;;;;;;;0.20;0.20;;;18.10;99.90;;;;;;5032491;28;20057;-79
2023/09/10 02:07:59;;;;;;;0.20;0.20;;;18.10;99.90;;;;;;5034324;28;20040;-81
2023/09/10 02:10:26;;;;;;;0.20;0.20;;;18.10;99.90;;;;;;5026302;28;20042;-81
2023/09/10 02:12:51;;;;;;;0.10;0.10;;;18.10;99.90;;;;;;5033202;28;20034;-81
2023/09/10 02:15:17;;;;;;;0.20;0.20;;;18.10;99.90;;;;;;5030102;28;20063;-81
2023/09/10 02:17:43;;;;;;;0.20;0.20;;;18.10;99.90;;;;;;5027804;28;20026;-81
2023/09/10 02:20:09;;;;;;;0.20;0.20;;;18.10;99.90;;;;;;5027557;28;20053;-81
2023/09/10 02:22:39;;;;;;;0.20;0.20;;;18.10;99.90;;;;;;5019029;28;20371;-80
2023/09/10 02:25:05;;;;;;;0.20;0.20;;;18.10;99.90;;;;;;5032156;28;20037;-81
2023/09/10 02:27:32;;;;;;;0.20;0.20;;;18.10;99.90;;;;;;5032401;28;20045;-80
2023/09/10 02:29:58;;;;;;;0.20;0.20;;;18.10;99.90;;;;;;5029959;28;20198;-80
2023/09/10 02:32:24;;;;;;;0.20;0.20;;;18.10;99.90;;;;;;5025329;28;20452;-82
2023/09/10 02:34:51;;;;;;;0.20;0.20;;;18.10;99.90;;;;;;5028243;28;20060;-81
2023/09/10 02:37:17;;;;;;;0.20;0.20;;;18.10;99.90;;;;;;5031543;28;20041;-81
2023/09/10 02:39:43;;;;;;;0.10;0.10;;;18.10;99.90;;;;;;5032212;28;20124;-80
2023/09/10 02:42:09;;;;;;;0.20;0.20;;;18.10;99.90;;;;;;5031308;28;20073;-80
2023/09/10 02:44:35;;;;;;;0.10;0.10;;;18.10;99.90;;;;;;5037149;28;20047;-81
2023/09/10 02:47:00;;;;;;;0.20;0.20;;;18.00;99.90;;;;;;5027625;28;20081;-81
2023/09/10 02:49:26;;;;;;;0.10;0.10;;;18.00;99.90;;;;;;5024865;28;20033;-81
2023/09/10 02:51:52;;;;;;;0.20;0.20;;;18.00;99.90;;;;;;5029368;28;20401;-81
2023/09/10 02:54:17;;;;;;;0.20;0.20;;;18.00;99.90;;;;;;5032776;28;20060;-80
2023/09/10 02:56:43;;;;;;;0.20;0.20;;;18.00;99.90;;;;;;5030054;28;20148;-81
2023/09/10 02:59:19;;;;;;;0.10;0.10;;;18.00;99.90;;;;;;5030062;28;20047;-81
2023/09/10 03:01:45;;;;;;;0.20;0.20;;;18.00;99.90;;;;;;5029786;28;20088;-81
2023/09/10 03:04:11;;;;;;;0.15;0.15;;;18.00;99.90;;;;;;5029209;28;20053;-81
2023/09/10 03:06:36;;;;;;;0.10;0.10;;;18.00;99.90;;;;;;5029910;28;20473;-81
2023/09/10 03:09:02;;;;;;;0.10;0.10;;;18.00;99.90;;;;;;5030487;28;20124;-80
2023/09/10 03:11:31;;;;;;;0.20;0.20;;;17.90;99.90;;;;;;5030720;28;20167;-81
2023/09/10 03:13:56;;;;;;;0.20;0.20;;;17.90;99.90;;;;;;5031189;28;20038;-80
2023/09/10 03:16:24;;;;;;;0.10;0.10;;;18.00;99.90;;;;;;5030436;28;20048;-80
2023/09/10 03:18:50;;;;;;;0.20;0.20;;;18.00;99.90;;;;;;5023284;28;20041;-81
2023/09/10 03:21:15;;;;;;;0.20;0.20;;;18.00;99.90;;;;;;5026406;28;20378;-80
2023/09/10 03:23:41;;;;;;;0.10;0.10;;;17.90;99.90;;;;;;5023125;28;20045;-81
2023/09/10 03:26:11;;;;;;;0.20;0.20;;;17.90;99.90;;;;;;5025404;28;20102;-81
2023/09/10 03:28:37;;;;;;;0.20;0.20;;;17.90;99.90;;;;;;5018680;28;20117;-81
2023/09/10 03:31:03;;;;;;;0.20;0.20;;;17.90;99.90;;;;;;5020388;28;20171;-80
2023/09/10 03:33:29;;;;;;;0.15;0.15;;;17.90;99.90;;;;;;5028848;28;20575;-80
2023/09/10 03:35:54;;;;;;;0.10;0.10;;;17.90;99.90;;;;;;5029147;28;20336;-80
2023/09/10 03:38:20;;;;;;;0.20;0.20;;;17.90;99.90;;;;;;5029350;28;20099;-80
2023/09/10 03:40:45;;;;;;;0.20;0.20;;;17.90;99.90;;;;;;5023068;28;20038;-81
2023/09/10 03:43:11;;;;;;;0.20;0.20;;;17.90;99.90;;;;;;5014416;28;20455;-81
2023/09/10 03:45:37;;;;;;;0.20;0.20;;;17.90;99.90;;;;;;5030936;28;20607;-80
2023/09/10 03:48:03;;;;;;;0.20;0.20;;;17.90;99.90;;;;;;5027439;28;20500;-80
2023/09/10 03:50:28;;;;;;;0.20;0.20;;;17.90;99.90;;;;;;5031526;28;20555;-80
2023/09/10 03:52:54;;;;;;;0.20;0.20;;;17.90;99.90;;;;;;5029925;28;20041;-80
2023/09/10 03:55:19;;;;;;;0.20;0.20;;;17.80;99.90;;;;;;5034736;28;20591;-80
2023/09/10 03:57:45;;;;;;;0.20;0.20;;;17.80;99.90;;;;;;5031013;28;20414;-81
2023/09/10 04:00:11;;;;;;;0.20;0.20;;;17.80;99.90;;;;;;5023504;28;20041;-81
2023/09/10 04:02:37;;;;;;;0.10;0.10;;;17.80;99.90;;;;;;5030851;28;20060;-81
2023/09/10 04:05:04;;;;;;;0.10;0.10;;;17.80;99.90;;;;;;5031659;28;20195;-81
2023/09/10 04:07:30;;;;;;;0.20;0.20;;;17.80;99.90;;;;;;5029797;28;20042;-80
2023/09/10 04:09:55;;;;;;;0.20;0.20;;;17.70;99.90;;;;;;5030220;28;20057;-81
2023/09/10 04:12:21;;;;;;;0.20;0.20;;;17.70;99.90;;;;;;5031563;28;20033;-80
2023/09/10 04:14:46;;;;;;;0.17;0.17;;;17.80;99.90;;;;;;5029271;28;20120;-80
2023/09/10 04:17:16;;;;;;;0.20;0.20;;;17.70;99.90;;;;;;5028947;28;20057;-80
2023/09/10 04:19:42;;;;;;;0.20;0.20;;;17.70;99.90;;;;;;5031479;28;20046;-80
2023/09/10 04:22:08;;;;;;;0.20;0.20;;;17.70;99.90;;;;;;5027913;28;20049;-80
2023/09/10 04:24:34;;;;;;;0.20;0.20;;;17.70;99.90;;;;;;5030035;28;20055;-80
2023/09/10 04:27:00;;;;;;;0.20;0.20;;;17.70;99.90;;;;;;5022801;28;20052;-80
2023/09/10 04:29:26;;;;;;;0.20;0.20;;;17.70;99.90;;;;;;5030858;28;20045;-80
2023/09/10 04:31:51;;;;;;;0.10;0.10;;;17.70;99.90;;;;;;5018565;28;20560;-79
2023/09/10 04:34:17;;;;;;;0.20;0.20;;;17.70;99.90;;;;;;5028050;28;20046;-80
2023/09/10 04:36:43;;;;;;;0.20;0.20;;;17.70;99.90;;;;;;5026053;28;20034;-80
2023/09/10 04:39:09;;;;;;;0.10;0.10;;;17.70;99.90;;;;;;5020786;28;20056;-80
2023/09/10 04:41:36;;;;;;;0.20;0.20;;;17.70;99.90;;;;;;5021135;28;20080;-88
2023/09/10 04:44:03;;;;;;;0.20;0.20;;;17.70;99.90;;;;;;5024093;28;20080;-80
2023/09/10 04:46:29;;;;;;;0.17;0.17;;;17.60;99.90;;;;;;5041771;28;20037;-80
2023/09/10 04:48:57;;;;;;;0.10;0.10;;;17.60;99.90;;;;;;5025133;28;20039;-80
2023/09/10 04:51:23;;;;;;;0.17;0.17;;;17.60;99.90;;;;;;5026514;28;20053;-80
2023/09/10 04:53:49;;;;;;;0.20;0.20;;;17.60;99.90;;;;;;5027498;28;20132;-79
2023/09/10 04:56:14;;;;;;;0.20;0.20;;;17.60;99.90;;;;;;5019148;28;20049;-79
2023/09/10 04:58:40;;;;;;;0.20;0.20;;;17.60;99.90;;;;;;5027813;28;20064;-79
2023/09/10 05:01:06;;;;;;;0.20;0.20;;;17.60;99.90;;;;;;5023280;28;20127;-80
2023/09/10 05:03:32;;;;;;;0.20;0.20;;;17.60;99.90;;;;;;5028360;28;20056;-80
2023/09/10 05:06:02;;;;;;;0.20;0.20;;;17.60;99.90;;;;;;5028307;28;20053;-80
2023/09/10 05:08:28;;;;;;;0.20;0.20;;;17.60;99.90;;;;;;5032643;28;20045;-79
2023/09/10 05:10:55;;;;;;;0.10;0.10;;;17.60;99.90;;;;;;5024062;28;20131;-80
2023/09/10 05:13:20;;;;;;;0.20;0.20;;;17.60;99.90;;;;;;5027058;28;20120;-80
2023/09/10 05:15:54;;;;;;;0.20;0.20;;;17.60;99.90;;;;;;5027742;28;20458;-79
2023/09/10 05:18:22;;;;;;;0.10;0.10;;;17.60;99.90;;;;;;5033703;28;20053;-79
2023/09/10 05:20:48;;;;;;;0.20;0.20;;;17.50;99.90;;;;;;5024341;28;20505;-79
2023/09/10 05:23:14;;;;;;;0.20;0.20;;;17.60;99.90;;;;;;5026101;28;20045;-80
2023/09/10 05:25:39;;;;;;;0.20;0.20;;;17.60;99.90;;;;;;5019326;28;20500;-81
2023/09/10 05:28:05;;;;;;;0.20;0.20;;;17.60;99.90;;;;;;5024607;28;20038;-79
2023/09/10 05:30:31;;;;;;;0.20;0.20;;;17.60;99.90;;;;;;5022453;28;20081;-80
2023/09/10 05:32:57;;;;;;;0.10;0.10;;;17.60;99.90;;;;;;5025497;28;20057;-78
2023/09/10 05:35:23;;;;;;;0.20;0.20;;;17.60;99.90;;;;;;5026958;28;20087;-79
2023/09/10 05:37:49;;;;;;;0.10;0.10;;;17.60;99.90;;;;;;5026017;28;20041;-79
2023/09/10 05:40:15;;;;;;;0.20;0.20;;;17.60;99.90;;;;;;5024258;28;20513;-79
2023/09/10 05:42:40;;;;;;;0.20;0.20;;;17.60;99.90;;;;;;5021695;28;20064;-79
2023/09/10 05:45:07;;;;;;;0.20;0.20;;;17.60;99.90;;;;;;5023734;28;20041;-79
2023/09/10 05:47:32;;;;;;;0.20;0.20;;;17.60;99.90;;;;;;5024659;28;20037;-79
2023/09/10 05:50:00;;;;;;;0.20;0.20;;;17.70;99.90;;;;;;5021706;28;20704;-79
2023/09/10 05:52:25;;;;;;;0.20;0.20;;;17.60;99.90;;;;;;5022293;28;20039;-80
2023/09/10 05:54:51;;;;;;;0.20;0.20;;;17.70;99.90;;;;;;5024489;28;20100;-80
2023/09/10 05:57:16;;;;;;;0.20;0.20;;;17.70;99.90;;;;;;5027492;28;20042;-80
2023/09/10 05:59:42;;;;;;;0.20;0.20;;;17.70;99.90;;;;;;5027917;28;20128;-79
2023/09/10 06:02:08;;;;;;;0.10;0.10;;;17.70;99.90;;;;;;5026548;28;20041;-79
2023/09/10 06:04:34;;;;;;;0.20;0.20;;;17.80;99.90;;;;;;5027342;28;20129;-80
2023/09/10 06:07:03;;;;;;;0.15;0.15;;;17.80;99.90;;;;;;5027014;28;20517;-80
2023/09/10 06:09:30;;;;;;;0.20;0.20;;;17.80;99.90;;;;;;5028045;28;20378;-80
2023/09/10 06:11:55;;;;;;;0.20;0.20;;;17.80;99.90;;;;;;5027083;28;20057;-80
2023/09/10 06:14:21;;;;;;;0.20;0.20;;;17.80;99.90;;;;;;5025944;28;20046;-80
2023/09/10 06:16:47;;;;;;;0.20;0.20;;;17.90;99.90;;;;;;5023601;28;20060;-80
2023/09/10 06:19:14;;;;;;;0.10;0.10;;;17.90;99.90;;;;;;5021169;28;20049;-79
2023/09/10 06:21:40;;;;;;;0.20;0.20;;;17.90;99.90;;;;;;5026643;28;20049;-80
2023/09/10 06:24:14;;;;;;;0.20;0.20;;;18.00;99.90;;;;;;5034608;28;20049;-80
2023/09/10 06:26:58;;;;;;;0.20;0.20;;;18.10;99.90;;;;;;5005378;28;20064;-79
2023/09/10 06:29:23;;;;;;;0.20;0.20;;;18.10;99.90;;;;;;5024373;28;20053;-79
2023/09/10 06:31:49;;;;;;;0.20;0.20;;;18.20;99.90;;;;;;5018364;28;20064;-80
2023/09/10 06:34:15;;;;;;;0.15;0.15;;;18.20;99.90;;;;;;5020591;28;20052;-80
2023/09/10 06:36:40;;;;;;;0.20;0.20;;;18.20;99.90;;;;;;5026074;28;20128;-80
2023/09/10 06:39:06;;;;;;;0.20;0.20;;;18.20;99.90;;;;;;5023089;28;20099;-81
2023/09/10 06:41:32;;;;;;;0.20;0.20;;;18.20;99.90;;;;;;5027781;28;20045;-80
2023/09/10 06:43:58;;;;;;;0.20;0.20;;;18.30;99.90;;;;;;5027320;28;20033;-80
2023/09/10 06:46:24;;;;;;;0.20;0.20;;;18.30;99.90;;;;;;5022402;28;20567;-79
2023/09/10 06:48:49;;;;;;;0.20;0.20;;;18.40;99.90;;;;;;5027818;28;20040;-80
2023/09/10 06:51:15;;;;;;;0.20;0.20;;;18.40;99.90;;;;;;5030048;28;20037;-80
2023/09/10 06:53:40;;;;;;;0.20;0.20;;;18.50;99.90;;;;;;5027901;28;20054;-79
2023/09/10 06:56:06;;;;;;;0.20;0.20;;;18.50;99.90;;;;;;5021248;28;20046;-80
2023/09/10 06:58:32;;;;;;;0.10;0.10;;;18.50;99.90;;;;;;5019836;28;20374;-80
2023/09/10 07:01:03;;;;;;;0.20;0.20;;;18.60;99.90;;;;;;5028265;28;20045;-79
2023/09/10 07:03:32;;;;;;;0.20;0.20;;;18.60;99.90;;;;;;5024429;28;20393;-81
2023/09/10 07:05:58;;;;;;;0.20;0.20;;;18.70;99.90;;;;;;5028827;28;20099;-80
2023/09/10 07:08:24;;;;;;;0.20;0.20;;;18.80;99.90;;;;;;5028065;28;20044;-80
2023/09/10 07:10:50;;;;;;;0.20;0.20;;;18.90;99.90;;;;;;5027214;28;20577;-81
2023/09/10 07:13:16;;;;;;;0.20;0.20;;;19.00;99.90;;;;;;5024493;28;20172;-80
2023/09/10 07:15:41;;;;;;;0.20;0.20;;;19.00;99.90;;;;;;5024917;28;20060;-80
2023/09/10 07:18:07;;;;;;;0.20;0.20;;;19.10;99.90;;;;;;5025366;28;20049;-81
2023/09/10 07:20:33;;;;;;;0.20;0.20;;;19.10;99.90;;;;;;5026056;28;20045;-80
2023/09/10 07:22:58;;;;;;;0.10;0.10;;;19.20;99.90;;;;;;5026307;28;20038;-80
2023/09/10 07:25:24;;;;;;;0.20;0.20;;;19.30;99.90;;;;;;5025502;28;20050;-80
2023/09/10 07:27:49;;;;;;;0.10;0.10;;;19.30;99.90;;;;;;5022575;28;20033;-81
2023/09/10 07:30:15;;;;;;;0.10;0.10;;;19.40;99.90;;;;;;5024554;28;20060;-81
2023/09/10 07:32:41;;;;;;;0.20;0.20;;;19.50;99.90;;;;;;5022415;28;20045;-82
2023/09/10 07:35:08;;;;;;;0.10;0.10;;;19.50;99.90;;;;;;5027916;28;20543;-81
2023/09/10 07:37:33;;;;;;;0.20;0.20;;;19.60;99.90;;;;;;5024574;28;20712;-82
2023/09/10 07:39:59;;;;;;;0.20;0.20;;;19.70;99.90;;;;;;5027783;28;20065;-82
2023/09/10 07:42:25;;;;;;;0.20;0.20;;;19.80;99.90;;;;;;5029761;28;20470;-82
2023/09/10 07:44:50;;;;;;;0.20;0.20;;;19.90;99.90;;;;;;5030257;28;20124;-82
2023/09/10 07:47:16;;;;;;;0.20;0.20;;;20.00;99.90;;;;;;5025777;28;20038;-82
2023/09/10 07:49:42;;;;;;;0.20;0.20;;;20.00;99.90;;;;;;5030488;28;20037;-80
2023/09/10 07:52:07;;;;;;;0.20;0.20;;;20.10;99.90;;;;;;5026970;28;20049;-80
2023/09/10 07:54:35;;;;;;;0.20;0.20;;;20.20;99.90;;;;;;5019979;28;20033;-79
2023/09/10 07:57:01;;;;;;;0.20;0.20;;;20.30;99.90;;;;;;5020810;28;20099;-80
2023/09/10 07:59:27;;;;;;;0.20;0.20;;;20.30;99.90;;;;;;5025121;28;20049;-81
2023/09/10 08:01:53;;;;;;;0.20;0.20;;;20.40;99.90;;;;;;5021890;28;20129;-81
2023/09/10 08:04:19;;;;;;;0.25;0.25;;;20.50;99.90;;;;;;5026986;28;20045;-81
2023/09/10 08:06:44;;;;;;;0.20;0.20;;;20.50;99.90;;;;;;5027330;28;20053;-81
2023/09/10 08:09:10;;;;;;;0.20;0.20;;;20.60;99.90;;;;;;5023516;28;20455;-81
2023/09/10 08:11:36;;;;;;;0.20;0.20;;;20.70;99.90;;;;;;5021256;28;20083;-80
2023/09/10 08:14:02;;;;;;;0.20;0.20;;;20.80;99.90;;;;;;5024794;28;20096;-80
2023/09/10 08:16:28;;;;;;;0.20;0.20;;;20.90;99.90;;;;;;5019855;28;20050;-80
2023/09/10 08:18:54;;;;;;;0.20;0.20;;;21.00;99.90;;;;;;5023318;28;20111;-79
2023/09/10 08:21:20;;;;;;;0.20;0.20;;;21.00;99.90;;;;;;5024539;28;20563;-80
2023/09/10 08:23:47;;;;;;;0.20;0.20;;;21.10;99.90;;;;;;5025145;28;20045;-80
2023/09/10 08:26:13;;;;;;;0.20;0.20;;;21.20;99.90;;;;;;5025726;28;20046;-80
2023/09/10 08:28:39;;;;;;;0.28;0.28;;;21.30;99.90;;;;;;5027500;28;20041;-81
2023/09/10 08:31:05;;;;;;;0.20;0.20;;;21.40;99.90;;;;;;5024795;28;20034;-80
2023/09/10 08:33:31;;;;;;;0.20;0.20;;;21.40;99.90;;;;;;5024497;28;20052;-81
2023/09/10 08:35:56;;;;;;;0.28;0.20;;;21.50;99.90;;;;;;5026494;28;20037;-81
2023/09/10 08:38:22;;;;;;;0.20;0.20;;;21.60;99.90;;;;;;5023199;28;20128;-81
2023/09/10 08:40:48;;;;;;;0.20;0.20;;;21.60;99.90;;;;;;5027928;28;20049;-81
2023/09/10 08:43:15;;;;;;;0.20;0.20;;;21.70;99.90;;;;;;5028513;28;20038;-81
2023/09/10 08:45:42;;;;;;;0.20;0.20;;;21.80;99.90;;;;;;5027966;28;20041;-81
2023/09/10 08:48:08;;;;;;;0.20;0.20;;;21.80;99.90;;;;;;5027959;28;20041;-80
2023/09/10 08:50:34;;;;;;;0.20;0.20;;;21.90;99.90;;;;;;5024565;28;20046;-80
2023/09/10 08:53:02;;;;;;;0.20;0.20;;;22.00;99.90;;;;;;5028708;28;20038;-79
2023/09/10 08:55:29;;;;;;;0.20;0.20;;;22.10;99.90;;;;;;5028030;28;20608;-80
2023/09/10 08:57:56;;;;;;;0.20;0.20;;;22.20;99.90;;;;;;5021025;28;20164;-80
2023/09/10 09:00:23;;;;;;;0.20;0.20;;;22.30;99.90;;;;;;5027407;28;20049;-81
2023/09/10 09:02:49;;;;;;;0.20;0.20;;;22.30;99.90;;;;;;5022127;28;20116;-79
2023/09/10 09:05:15;;;;;;;0.20;0.20;;;22.40;99.90;;;;;;5029487;28;20520;-80
2023/09/10 09:07:51;;;;;;;0.10;0.10;;;22.50;99.90;;;;;;5024969;28;20037;-80
2023/09/10 09:10:25;;;;;;;0.20;0.20;;;22.60;99.90;;;;;;5022176;28;20064;-80
2023/09/10 09:12:56;;;;;;;0.20;0.20;;;22.70;99.90;;;;;;5013585;28;20041;-81
2023/09/10 09:15:23;;;;;;;0.20;0.20;;;22.70;99.90;;;;;;5012480;28;20076;-81
2023/09/10 09:17:50;;;;;;;0.20;0.20;;;22.80;99.90;;;;;;5017781;28;20038;-80
2023/09/10 09:20:19;;;;;;;0.15;0.15;;;22.80;99.90;;;;;;5017583;28;20062;-79
2023/09/10 09:22:53;;;;;;;0.20;0.20;;;22.90;99.90;;;;;;5014140;28;20068;-79
2023/09/10 09:25:19;;;;;;;0.20;0.20;;;23.00;99.90;;;;;;5020809;28;20053;-80
2023/09/10 09:27:44;;;;;;;0.20;0.20;;;23.10;99.90;;;;;;5020660;28;20042;-80
2023/09/10 09:30:11;;;;;;;0.20;0.20;;;23.20;99.90;;;;;;5020861;28;20393;-81
2023/09/10 09:32:38;;;;;;;0.30;0.22;;;23.30;99.90;;;;;;5024169;28;20037;-80
2023/09/10 09:35:05;;;;;;;0.20;0.20;;;23.30;99.90;;;;;;5018442;28;20520;-81
2023/09/10 09:37:35;;;;;;;0.30;0.30;;;23.40;99.90;;;;;;5022426;28;20509;-82
2023/09/10 09:40:01;;;;;;;0.20;0.20;;;23.50;99.90;;;;;;5022984;28;20060;-81
2023/09/10 09:42:27;;;;;;;0.20;0.20;;;23.50;99.90;;;;;;5016606;28;20549;-80
2023/09/10 09:44:54;;;;;;;0.20;0.20;;;23.60;99.90;;;;;;5024266;28;20048;-80
2023/09/10 09:47:20;;;;;;;0.20;0.20;;;23.80;99.90;;;;;;5024341;28;20049;-80
2023/09/10 09:49:47;;;;;;;0.20;0.20;;;23.80;99.90;;;;;;5021845;28;20029;-79
2023/09/10 09:52:15;;;;;;;0.20;0.20;;;23.90;99.90;;;;;;5021744;28;20045;-81
2023/09/10 09:54:40;;;;;;;0.20;0.20;;;24.00;99.90;;;;;;5028034;28;20057;-81
2023/09/10 09:57:07;;;;;;;0.20;0.20;;;24.30;99.90;;;;;;5022759;28;20045;-81
2023/09/10 09:59:38;;;;;;;0.20;0.20;;;24.20;99.90;;;;;;5019467;28;20044;-81
2023/09/10 10:02:04;;;;;;;0.20;0.20;;;24.30;99.90;;;;;;5022876;28;20120;-81
2023/09/10 10:04:33;;;;;;;0.20;0.20;;;24.30;99.90;;;;;;5022020;28;20553;-82
2023/09/10 10:07:01;;;;;;;0.20;0.20;;;24.40;99.90;;;;;;5020349;28;20421;-81
2023/09/10 10:09:53;;;;;;;0.28;0.28;;;24.50;99.90;;;;;;5015619;28;20407;-81
2023/09/10 10:12:21;;;;;;;0.20;0.20;;;24.50;99.90;;;;;;5021938;28;20065;-82
2023/09/10 10:14:48;;;;;;;0.30;0.30;;;24.60;99.90;;;;;;5018071;28;20507;-82
2023/09/10 10:17:15;;;;;;;0.20;0.20;;;24.70;99.90;;;;;;5020833;28;20112;-82
2023/09/10 10:19:41;;;;;;;0.20;0.20;;;25.00;99.90;;;;;;5023587;28;20045;-82
2023/09/10 10:22:08;;;;;;;0.20;0.20;;;24.90;99.90;;;;;;5018671;28;20104;-82
2023/09/10 10:24:35;;;;;;;0.20;0.20;;;25.00;99.90;;;;;;5021710;28;20095;-81
2023/09/10 10:27:01;;;;;;;0.20;0.20;;;25.00;99.90;;;;;;5020794;28;20038;-81
2023/09/10 10:29:27;;;;;;;0.20;0.20;;;25.30;99.90;;;;;;5022577;28;20493;-81
2023/09/10 10:32:19;;;;;;;0.20;0.20;;;25.30;99.90;;;;;;5013542;28;20042;-82
2023/09/10 10:34:57;;;;;;;1.48;0.30;;;25.30;99.90;;;;;;5027263;28;20056;-81
2023/09/10 10:37:58;;;;;;;0.20;0.20;;;25.50;99.90;;;;;;5018980;28;20038;-81
2023/09/10 10:40:38;;;;;;;0.20;0.20;;;25.40;99.90;;;;;;5025514;28;20069;-82
2023/09/10 10:43:12;;;;;;;0.20;0.20;;;25.50;99.90;;;;;;5032330;28;20041;-88
2023/09/10 10:45:38;;;;;;;0.20;0.20;;;25.60;99.90;;;;;;5027744;28;20115;-81
2023/09/10 10:48:09;;;;;;;0.20;0.20;;;25.70;99.90;;;;;;5024896;28;20050;-82
2023/09/10 10:50:36;;;;;;;0.30;0.30;;;25.70;99.90;;;;;;5027625;28;20484;-81
2023/09/10 10:53:18;;;;;;;0.20;0.20;;;25.80;99.90;;;;;;5031054;28;20072;-82
2023/09/10 10:55:45;;;;;;;0.20;0.20;;;25.90;99.90;;;;;;5031919;28;20148;-82
2023/09/10 10:58:11;;;;;;;0.20;0.20;;;26.00;99.90;;;;;;5025728;28;20053;-81
2023/09/10 11:00:37;;;;;;;0.20;0.20;;;26.00;99.90;;;;;;5031817;28;20046;-82
2023/09/10 11:03:13;;;;;;;0.20;0.20;;;26.10;99.90;;;;;;5030678;28;20100;-85
2023/09/10 11:06:04;;;;;;;0.20;0.20;;;26.20;99.90;;;;;;5031150;28;20060;-83
2023/09/10 11:08:30;;;;;;;;;;;26.30;99.90;;;;;;5030740;28;20046;-83
2023/09/10 11:10:56;;;;;;;0.20;0.20;;;26.40;99.90;;;;;;5022989;28;20364;-83
2023/09/10 11:13:23;;;;;;;0.28;0.28;;;26.50;99.90;;;;;;5029415;28;20099;-81
2023/09/10 11:16:03;;;;;;;0.63;0.47;;;26.60;99.90;;;;;;5027273;28;20038;-85
2023/09/10 11:18:35;;;;;;;;;;;26.70;99.90;;;;;;5030828;28;20056;-82
2023/09/10 11:21:06;;;;;;;0.30;0.30;;;26.70;99.90;;;;;;5027187;28;19967;-82
2023/09/10 11:23:33;;;;;;;0.20;0.20;;;26.90;99.90;;;;;;5026937;28;20041;-82
2023/09/10 11:26:14;;;;;;;0.20;0.20;;;27.00;99.90;;;;;;5029456;28;20041;-83
2023/09/10 11:28:43;;;;;;;0.25;0.25;;;27.10;99.90;;;;;;5028979;28;20161;-82
2023/09/10 11:31:41;;;;;;;0.20;0.20;;;27.20;99.90;;;;;;5026750;28;20076;-82
2023/09/10 11:34:27;;;;;;;0.15;0.15;;;27.40;99.90;;;;;;5031420;28;20041;-83
2023/09/10 11:37:04;;;;;;;0.10;0.10;;;27.40;99.90;;;;;;5029439;28;20057;-82
2023/09/10 11:39:31;;;;;;;0.20;0.20;;;27.50;99.90;;;;;;5021313;28;20053;-81
2023/09/10 11:41:59;;;;;;;0.20;0.20;;;27.60;99.90;;;;;;5029974;28;20045;-83
2023/09/10 11:44:24;;;;;;;0.20;0.20;;;27.70;99.90;;;;;;5024307;28;20072;-81
2023/09/10 11:46:53;;;;;;;0.20;0.20;;;27.70;99.90;;;;;;5023198;28;20510;-82
2023/09/10 11:49:20;;;;;;;0.20;0.20;;;27.80;99.90;;;;;;5023456;28;20045;-84
2023/09/10 11:51:48;;;;;;;0.20;0.20;;;27.90;99.90;;;;;;5017855;28;20072;-82
2023/09/10 11:54:18;;;;;;;0.20;0.20;;;28.00;99.90;;;;;;5018452;28;20090;-82
2023/09/10 11:56:57;;;;;;;0.20;0.20;;;28.20;99.90;;;;;;5024338;28;20045;-82
2023/09/10 11:59:31;;;;;;;0.20;0.20;;;28.40;99.90;;;;;;5019611;28;20390;-84
2023/09/10 12:01:58;;;;;;;0.30;0.30;;;28.60;99.90;;;;;;5015258;28;20057;-83
2023/09/10 12:04:31;;;;;;;0.20;0.20;;;29.00;99.90;;;;;;5024147;28;20057;-81
2023/09/10 12:07:01;;;;;;;0.20;0.20;;;28.90;99.90;;;;;;5015888;28;20405;-83
2023/09/10 12:09:31;;;;;;;0.20;0.20;;;29.20;99.90;;;;;;5026190;28;20057;-84
2023/09/10 12:12:02;;;;;;;0.20;0.20;;;29.40;99.90;;;;;;5024336;28;20069;-83
2023/09/10 12:14:28;;;;;;;0.20;0.20;;;29.60;99.90;;;;;;5027047;28;20307;-84
2023/09/10 12:16:54;;;;;;;0.20;0.20;;;29.80;99.90;;;;;;5026628;28;20467;-83
2023/09/10 12:19:20;;;;;;;0.20;0.20;;;30.00;99.90;;;;;;5028266;28;20044;-84
2023/09/10 12:21:46;;;;;;;0.20;0.20;;;30.20;99.90;;;;;;5019923;28;20045;-84
2023/09/10 12:24:12;;;;;;;0.20;0.20;;;30.40;99.90;;;;;;5024213;28;20057;-84
2023/09/10 12:26:38;;;;;;;0.20;0.20;;;30.50;99.90;;;;;;5026146;28;20052;-83
2023/09/10 12:29:03;;;;;;;0.20;0.20;;;30.70;99.90;;;;;;5020609;28;20046;-83
2023/09/10 12:31:30;;;;;;;0.20;0.20;;;30.80;99.90;;;;;;5027402;28;20103;-84
2023/09/10 12:33:58;;;;;;;0.20;0.20;;;;;;;;;;5024720;28;20492;-83
2023/09/10 12:36:25;;;;;;;0.20;0.20;;;;;;;;;;5026745;28;20056;-83
2023/09/10 12:38:50;;;;;;;0.20;0.20;;;33.10;99.90;;;;;;5029034;28;20128;-83
2023/09/10 12:41:16;;;;;;;0.20;0.20;;;31.80;99.90;;;;;;5027605;28;20140;-83
2023/09/10 12:43:44;;;;;;;0.20;0.20;;;31.80;99.90;;;;;;5028295;28;20396;-83
2023/09/10 12:46:09;;;;;;;0.20;0.20;;;31.90;99.90;;;;;;5023149;28;20429;-83
2023/09/10 12:48:35;;;;;;;0.20;0.20;;;31.80;99.90;;;;;;5029918;28;20570;-83
2023/09/10 12:51:01;;;;;;;0.20;0.20;;;31.90;99.90;;;;;;5025276;28;20436;-83